createdAt,value
2023-03-03T07:22:37.103Z,14.45
2023-03-03T07:32:48.488Z,13.20
2023-03-03T07:35:51.002Z,12.88
2023-03-03T07:38:55.367Z,12.77
2023-03-03T07:42:08.647Z,13.15
2023-03-03T07:45:27.247Z,13.18
2023-03-03T07:48:35.812Z,11.90
2023-03-03T07:51:41.996Z,12.20
2023-03-03T07:54:47.631Z,12.68
2023-03-03T07:57:54.752Z,12.10
2023-03-03T08:01:27.078Z,12.25
2023-03-03T08:04:40.195Z,11.63
2023-03-03T08:07:42.820Z,10.55
2023-03-03T08:14:22.019Z,12.40
2023-03-03T08:17:26.348Z,13.20
2023-03-03T08:20:45.498Z,13.90
2023-03-03T08:27:17.251Z,12.57
2023-03-03T08:30:19.776Z,12.60
2023-03-03T08:33:22.405Z,12.20
2023-03-03T08:36:24.992Z,13.80
2023-03-03T08:39:27.478Z,13.18
2023-03-03T08:42:31.423Z,12.60
2023-03-03T08:45:34.853Z,12.32
2023-03-03T08:48:37.363Z,14.05
2023-03-03T08:51:40.341Z,12.52
2023-03-03T08:54:42.867Z,13.18
2023-03-03T08:57:47.036Z,12.32
2023-03-03T09:00:51.232Z,12.35
2023-03-03T09:03:54.646Z,11.65
2023-03-03T09:06:57.151Z,14.02
2023-03-03T09:09:59.708Z,12.80
2023-03-03T09:13:13.334Z,12.20
2023-03-03T09:16:17.071Z,13.13
2023-03-03T09:19:24.900Z,14.50
2023-03-03T09:22:28.948Z,12.48
2023-03-03T09:25:34.148Z,12.82
2023-03-03T09:28:38.500Z,13.80
2023-03-03T09:31:43.946Z,13.23
2023-03-03T09:34:47.975Z,13.40
2023-03-03T09:37:52.307Z,14.93
2023-03-03T09:41:16.476Z,14.35
2023-03-03T09:44:52.891Z,14.55
2023-03-03T09:48:14.789Z,15.07
2023-03-03T09:51:34.109Z,16.30
2023-03-03T09:54:54.377Z,16.42
2023-03-03T09:58:11.573Z,15.50
2023-03-03T10:01:41.272Z,15.88
2023-03-03T10:04:57.307Z,14.52
2023-03-03T10:08:12.342Z,15.38
2023-03-03T10:11:21.890Z,15.27
2023-03-03T10:14:46.090Z,15.32
2023-03-03T10:17:53.230Z,13.45
2023-03-03T10:21:05.675Z,14.85
2023-03-03T10:24:23.142Z,14.82
2023-03-03T10:27:40.922Z,15.05
2023-03-03T10:31:04.778Z,14.15
2023-03-03T10:34:25.205Z,14.05
2023-03-03T10:37:34.327Z,15.40
2023-03-03T10:40:42.057Z,14.60
2023-03-03T10:44:04.803Z,14.43
2023-03-03T10:47:30.582Z,15.05
2023-03-03T10:50:43.956Z,13.70
2023-03-03T10:53:55.517Z,14.55
2023-03-03T10:57:08.355Z,13.50
2023-03-03T11:00:21.844Z,11.80
2023-03-03T11:03:43.615Z,13.63
2023-03-03T11:06:52.531Z,12.02
2023-03-03T11:10:06.124Z,13.57
2023-03-03T11:13:16.577Z,12.15
2023-03-03T11:16:42.290Z,13.27
2023-03-03T11:20:02.732Z,13.02
2023-03-03T11:23:22.940Z,13.82
2023-03-03T11:26:35.298Z,12.98
2023-03-03T11:29:52.807Z,13.52
2023-03-03T11:33:05.081Z,13.48
2023-03-03T11:36:17.280Z,14.25
2023-03-03T11:39:24.212Z,14.63
2023-03-03T11:42:38.349Z,14.15
2023-03-03T11:45:44.798Z,15.70
2023-03-03T11:48:55.313Z,14.30
2023-03-03T11:52:07.904Z,14.18
2023-03-03T11:55:16.497Z,13.88
2023-03-03T11:58:23.765Z,14.27
2023-03-03T12:01:34.098Z,12.30
2023-03-03T12:04:40.351Z,14.65
2023-03-03T12:07:50.848Z,13.57
2023-03-03T12:11:06.168Z,13.52
2023-03-03T12:14:18.961Z,14.10
2023-03-03T12:17:40.632Z,14.73
2023-03-03T12:20:50.534Z,15.23
2023-03-03T12:24:09.001Z,14.95
2023-03-03T12:27:23.385Z,16.02
2023-03-03T12:30:42.805Z,16.08
2023-03-03T12:33:58.370Z,14.85
2023-03-03T12:37:14.886Z,16.10
2023-03-03T12:40:21.021Z,14.85
2023-03-03T12:43:40.720Z,16.20
2023-03-03T12:46:47.516Z,15.93
2023-03-03T12:50:08.323Z,16.60
2023-03-03T12:53:25.744Z,16.30
2023-03-03T12:56:36.397Z,16.75
2023-03-03T12:59:47.908Z,15.98
2023-03-03T13:03:00.950Z,16.60
2023-03-03T13:06:12.193Z,14.88
2023-03-03T13:09:30.067Z,15.68
2023-03-03T13:12:38.504Z,16.00
2023-03-03T13:15:55.508Z,16.33
2023-03-03T13:19:04.054Z,16.98
2023-03-03T13:22:14.418Z,15.23
2023-03-03T13:25:36.535Z,14.80
2023-03-03T13:28:42.458Z,15.18
2023-03-03T13:31:50.694Z,14.15
2023-03-03T13:35:02.386Z,13.23
2023-03-03T13:38:07.411Z,14.32
2023-03-03T13:41:22.090Z,13.15
2023-03-03T13:44:31.142Z,14.35
2023-03-03T13:47:44.635Z,13.65
2023-03-03T13:50:51.972Z,12.93
2023-03-03T13:54:03.521Z,13.98
2023-03-03T13:57:17.170Z,13.02
2023-03-03T14:00:31.935Z,13.73
2023-03-03T14:03:54.729Z,13.50
2023-03-03T14:07:04.303Z,12.32
2023-03-03T14:10:16.983Z,13.60
2023-03-03T14:13:26.049Z,11.85
2023-03-03T14:16:42.810Z,11.07
2023-03-03T14:19:49.762Z,11.95
2023-03-03T14:22:58.047Z,12.48
2023-03-03T14:26:08.901Z,11.80
2023-03-03T14:29:21.551Z,10.98
2023-03-03T14:32:39.471Z,11.82
2023-03-03T14:35:53.286Z,11.50
2023-03-03T14:38:55.914Z,11.73
2023-03-03T14:41:59.449Z,10.65
2023-03-03T14:45:04.668Z,10.32
2023-03-03T14:48:16.384Z,10.48
2023-03-03T14:51:25.938Z,10.43
2023-03-03T14:54:31.032Z,9.48
2023-03-03T14:57:46.581Z,9.30
2023-03-03T15:00:49.388Z,9.07
2023-03-03T15:04:00.550Z,9.27
2023-03-03T15:07:22.150Z,9.35
2023-03-03T15:10:30.878Z,9.95
2023-03-03T15:13:36.158Z,9.13
2023-03-03T15:16:40.144Z,9.52
2023-03-03T15:19:51.514Z,8.38
2023-03-03T15:23:06.222Z,8.45
2023-03-03T15:26:14.305Z,8.20
2023-03-03T15:29:23.499Z,9.57
2023-03-03T15:32:31.142Z,8.55
2023-03-03T15:35:48.696Z,8.90
2023-03-03T15:39:04.375Z,9.52
2023-03-03T15:42:14.768Z,9.35
2023-03-03T15:45:27.342Z,8.65
2023-03-03T15:48:42.119Z,10.10
2023-03-03T15:52:03.468Z,9.70
2023-03-03T15:55:28.953Z,10.32
2023-03-03T15:59:00.257Z,10.98
2023-03-03T16:02:12.885Z,11.50
2023-03-03T16:05:21.787Z,10.63
2023-03-03T16:08:30.767Z,10.93
2023-03-03T16:11:41.857Z,10.70
2023-03-03T16:15:00.127Z,13.30
2023-03-03T16:18:10.677Z,12.52
2023-03-03T16:21:24.514Z,12.57
2023-03-03T16:24:40.772Z,11.30
